sensor_id;sensor_type;location;lat;lon;timestamp;temperature;humidity
38020;DHT22;23829;51.350;17.286;2023-07-09T00:02:17;30.70;35.20
38020;DHT22;23829;51.350;17.286;2023-07-09T00:04:44;30.60;35.10
38020;DHT22;23829;51.350;17.286;2023-07-09T00:09:44;30.60;35.30
38020;DHT22;23829;51.350;17.286;2023-07-09T00:12:15;30.50;35.40
38020;DHT22;23829;51.350;17.286;2023-07-09T00:14:42;30.50;35.30
38020;DHT22;23829;51.350;17.286;2023-07-09T00:17:23;30.50;35.20
38020;DHT22;23829;51.350;17.286;2023-07-09T00:19:52;30.50;34.80
38020;DHT22;23829;51.350;17.286;2023-07-09T00:22:19;30.50;34.60
38020;DHT22;23829;51.350;17.286;2023-07-09T00:24:51;30.40;34.90
38020;DHT22;23829;51.350;17.286;2023-07-09T00:27:19;30.40;35.00
38020;DHT22;23829;51.350;17.286;2023-07-09T00:29:47;30.40;35.10
38020;DHT22;23829;51.350;17.286;2023-07-09T00:32:19;30.40;34.90
38020;DHT22;23829;51.350;17.286;2023-07-09T00:34:49;30.40;34.90
38020;DHT22;23829;51.350;17.286;2023-07-09T00:37:17;30.30;34.90
38020;DHT22;23829;51.350;17.286;2023-07-09T00:39:44;30.30;35.00
38020;DHT22;23829;51.350;17.286;2023-07-09T00:42:16;30.10;35.00
38020;DHT22;23829;51.350;17.286;2023-07-09T00:44:45;30.10;35.30
38020;DHT22;23829;51.350;17.286;2023-07-09T00:47:29;30.10;35.40
38020;DHT22;23829;51.350;17.286;2023-07-09T00:50:20;30.10;35.40
38020;DHT22;23829;51.350;17.286;2023-07-09T00:52:53;30.10;35.50
38020;DHT22;23829;51.350;17.286;2023-07-09T00:55:25;29.90;35.50
38020;DHT22;23829;51.350;17.286;2023-07-09T00:57:55;29.80;35.90
38020;DHT22;23829;51.350;17.286;2023-07-09T01:00:32;29.80;36.00
38020;DHT22;23829;51.350;17.286;2023-07-09T01:05:48;30.00;36.00
38020;DHT22;23829;51.350;17.286;2023-07-09T01:08:21;30.10;36.10
38020;DHT22;23829;51.350;17.286;2023-07-09T01:10:48;30.00;35.80
38020;DHT22;23829;51.350;17.286;2023-07-09T01:13:14;30.20;35.00
38020;DHT22;23829;51.350;17.286;2023-07-09T01:15:41;30.10;34.90
38020;DHT22;23829;51.350;17.286;2023-07-09T01:18:07;30.10;34.90
38020;DHT22;23829;51.350;17.286;2023-07-09T01:20:38;30.30;34.30
38020;DHT22;23829;51.350;17.286;2023-07-09T01:23:05;30.10;35.00
38020;DHT22;23829;51.350;17.286;2023-07-09T01:25:32;30.00;35.30
38020;DHT22;23829;51.350;17.286;2023-07-09T01:27:58;30.00;35.30
38020;DHT22;23829;51.350;17.286;2023-07-09T01:30:32;29.90;35.60
38020;DHT22;23829;51.350;17.286;2023-07-09T01:33:00;29.90;35.50
38020;DHT22;23829;51.350;17.286;2023-07-09T01:35:29;30.00;35.40
38020;DHT22;23829;51.350;17.286;2023-07-09T01:37:56;30.10;35.10
38020;DHT22;23829;51.350;17.286;2023-07-09T01:40:24;29.90;35.00
38020;DHT22;23829;51.350;17.286;2023-07-09T01:42:51;30.00;34.80
38020;DHT22;23829;51.350;17.286;2023-07-09T01:45:18;30.30;34.40
38020;DHT22;23829;51.350;17.286;2023-07-09T01:47:46;30.10;34.80
38020;DHT22;23829;51.350;17.286;2023-07-09T01:50:12;30.00;35.10
38020;DHT22;23829;51.350;17.286;2023-07-09T01:52:42;30.10;34.90
38020;DHT22;23829;51.350;17.286;2023-07-09T01:55:13;30.00;35.10
38020;DHT22;23829;51.350;17.286;2023-07-09T01:57:43;30.00;35.00
38020;DHT22;23829;51.350;17.286;2023-07-09T02:00:12;29.80;35.40
38020;DHT22;23829;51.350;17.286;2023-07-09T02:02:44;29.90;35.40
38020;DHT22;23829;51.350;17.286;2023-07-09T02:05:18;29.70;35.60
38020;DHT22;23829;51.350;17.286;2023-07-09T02:07:45;29.90;35.50
38020;DHT22;23829;51.350;17.286;2023-07-09T02:10:14;29.70;35.50
38020;DHT22;23829;51.350;17.286;2023-07-09T02:12:40;29.80;35.40
38020;DHT22;23829;51.350;17.286;2023-07-09T02:15:07;29.70;35.80
38020;DHT22;23829;51.350;17.286;2023-07-09T02:17:34;29.60;35.80
38020;DHT22;23829;51.350;17.286;2023-07-09T02:20:00;29.70;35.40
38020;DHT22;23829;51.350;17.286;2023-07-09T02:22:26;29.60;35.80
38020;DHT22;23829;51.350;17.286;2023-07-09T02:24:53;29.40;36.40
38020;DHT22;23829;51.350;17.286;2023-07-09T02:27:20;29.60;35.70
38020;DHT22;23829;51.350;17.286;2023-07-09T02:29:48;29.50;35.90
38020;DHT22;23829;51.350;17.286;2023-07-09T02:32:20;29.50;35.80
38020;DHT22;23829;51.350;17.286;2023-07-09T02:34:48;29.30;36.10
38020;DHT22;23829;51.350;17.286;2023-07-09T02:37:18;29.30;36.30
38020;DHT22;23829;51.350;17.286;2023-07-09T02:39:45;29.20;36.30
38020;DHT22;23829;51.350;17.286;2023-07-09T02:42:13;29.20;36.30
38020;DHT22;23829;51.350;17.286;2023-07-09T02:44:42;29.20;36.80
38020;DHT22;23829;51.350;17.286;2023-07-09T02:47:09;28.70;36.80
38020;DHT22;23829;51.350;17.286;2023-07-09T02:49:37;28.60;37.10
38020;DHT22;23829;51.350;17.286;2023-07-09T02:52:03;28.90;36.80
38020;DHT22;23829;51.350;17.286;2023-07-09T02:54:30;28.80;36.60
38020;DHT22;23829;51.350;17.286;2023-07-09T02:56:56;28.80;36.60
38020;DHT22;23829;51.350;17.286;2023-07-09T02:59:23;28.80;36.90
38020;DHT22;23829;51.350;17.286;2023-07-09T03:01:50;29.10;36.90
38020;DHT22;23829;51.350;17.286;2023-07-09T03:04:16;29.30;36.30
38020;DHT22;23829;51.350;17.286;2023-07-09T03:06:42;29.20;36.40
38020;DHT22;23829;51.350;17.286;2023-07-09T03:09:09;29.10;36.70
38020;DHT22;23829;51.350;17.286;2023-07-09T03:11:35;29.30;36.60
38020;DHT22;23829;51.350;17.286;2023-07-09T03:14:02;29.70;35.60
38020;DHT22;23829;51.350;17.286;2023-07-09T03:16:31;29.40;35.90
38020;DHT22;23829;51.350;17.286;2023-07-09T03:18:59;29.40;36.30
38020;DHT22;23829;51.350;17.286;2023-07-09T03:21:27;29.70;35.80
38020;DHT22;23829;51.350;17.286;2023-07-09T03:23:54;29.80;35.40
38020;DHT22;23829;51.350;17.286;2023-07-09T03:26:21;29.60;35.70
38020;DHT22;23829;51.350;17.286;2023-07-09T03:28:48;29.50;36.30
38020;DHT22;23829;51.350;17.286;2023-07-09T03:31:14;29.50;36.60
38020;DHT22;23829;51.350;17.286;2023-07-09T03:33:41;29.60;36.60
38020;DHT22;23829;51.350;17.286;2023-07-09T03:36:07;29.70;36.20
38020;DHT22;23829;51.350;17.286;2023-07-09T03:38:33;29.50;36.40
38020;DHT22;23829;51.350;17.286;2023-07-09T03:41:00;29.60;36.60
38020;DHT22;23829;51.350;17.286;2023-07-09T03:43:26;29.40;37.00
38020;DHT22;23829;51.350;17.286;2023-07-09T03:45:52;29.40;37.20
38020;DHT22;23829;51.350;17.286;2023-07-09T03:48:20;29.40;37.20
38020;DHT22;23829;51.350;17.286;2023-07-09T03:50:47;29.50;37.40
38020;DHT22;23829;51.350;17.286;2023-07-09T03:53:15;29.80;37.60
38020;DHT22;23829;51.350;17.286;2023-07-09T03:55:41;30.00;37.10
38020;DHT22;23829;51.350;17.286;2023-07-09T03:58:08;30.10;37.40
38020;DHT22;23829;51.350;17.286;2023-07-09T04:00:35;30.10;37.40
38020;DHT22;23829;51.350;17.286;2023-07-09T04:03:01;30.00;37.30
38020;DHT22;23829;51.350;17.286;2023-07-09T04:05:28;30.10;38.10
38020;DHT22;23829;51.350;17.286;2023-07-09T04:07:54;30.10;38.40
38020;DHT22;23829;51.350;17.286;2023-07-09T04:10:21;30.30;38.20
38020;DHT22;23829;51.350;17.286;2023-07-09T04:12:47;30.50;37.20
38020;DHT22;23829;51.350;17.286;2023-07-09T04:15:13;30.50;37.10
38020;DHT22;23829;51.350;17.286;2023-07-09T04:17:41;30.50;37.80
38020;DHT22;23829;51.350;17.286;2023-07-09T04:20:08;30.40;38.70
38020;DHT22;23829;51.350;17.286;2023-07-09T04:22:36;30.20;38.10
38020;DHT22;23829;51.350;17.286;2023-07-09T04:25:05;30.10;39.00
38020;DHT22;23829;51.350;17.286;2023-07-09T04:27:32;29.90;39.10
38020;DHT22;23829;51.350;17.286;2023-07-09T04:30:00;30.10;40.10
38020;DHT22;23829;51.350;17.286;2023-07-09T04:32:26;30.20;39.60
38020;DHT22;23829;51.350;17.286;2023-07-09T04:34:52;30.40;39.70
38020;DHT22;23829;51.350;17.286;2023-07-09T04:37:19;30.30;39.10
38020;DHT22;23829;51.350;17.286;2023-07-09T04:39:45;30.60;39.50
38020;DHT22;23829;51.350;17.286;2023-07-09T04:42:16;30.90;39.50
38020;DHT22;23829;51.350;17.286;2023-07-09T04:44:44;31.00;39.50
38020;DHT22;23829;51.350;17.286;2023-07-09T04:47:11;31.20;39.80
38020;DHT22;23829;51.350;17.286;2023-07-09T04:49:38;31.10;39.40
38020;DHT22;23829;51.350;17.286;2023-07-09T04:52:05;31.20;39.70
38020;DHT22;23829;51.350;17.286;2023-07-09T04:54:31;31.40;39.90
38020;DHT22;23829;51.350;17.286;2023-07-09T04:56:59;31.50;40.00
38020;DHT22;23829;51.350;17.286;2023-07-09T04:59:25;31.60;40.00
38020;DHT22;23829;51.350;17.286;2023-07-09T05:01:51;31.70;38.90
38020;DHT22;23829;51.350;17.286;2023-07-09T05:04:17;31.80;39.00
38020;DHT22;23829;51.350;17.286;2023-07-09T05:06:44;32.00;38.90
38020;DHT22;23829;51.350;17.286;2023-07-09T05:09:10;31.80;37.90
38020;DHT22;23829;51.350;17.286;2023-07-09T05:11:37;31.80;36.10
38020;DHT22;23829;51.350;17.286;2023-07-09T05:14:03;32.10;36.10
38020;DHT22;23829;51.350;17.286;2023-07-09T05:16:30;32.40;35.10
38020;DHT22;23829;51.350;17.286;2023-07-09T05:18:56;32.60;35.20
38020;DHT22;23829;51.350;17.286;2023-07-09T05:21:23;32.20;35.70
38020;DHT22;23829;51.350;17.286;2023-07-09T05:23:49;32.20;35.50
38020;DHT22;23829;51.350;17.286;2023-07-09T05:26:15;32.20;35.80
38020;DHT22;23829;51.350;17.286;2023-07-09T05:28:42;32.40;35.00
38020;DHT22;23829;51.350;17.286;2023-07-09T05:31:08;32.50;35.90
38020;DHT22;23829;51.350;17.286;2023-07-09T05:33:34;32.70;36.70
38020;DHT22;23829;51.350;17.286;2023-07-09T05:36:01;32.60;36.40
38020;DHT22;23829;51.350;17.286;2023-07-09T05:38:28;32.70;36.90
38020;DHT22;23829;51.350;17.286;2023-07-09T05:41:00;32.90;36.80
38020;DHT22;23829;51.350;17.286;2023-07-09T05:43:27;33.00;36.40
38020;DHT22;23829;51.350;17.286;2023-07-09T05:45:53;33.20;36.30
38020;DHT22;23829;51.350;17.286;2023-07-09T05:48:19;33.40;36.30
38020;DHT22;23829;51.350;17.286;2023-07-09T05:50:48;33.20;36.30
38020;DHT22;23829;51.350;17.286;2023-07-09T05:53:15;33.50;36.60
38020;DHT22;23829;51.350;17.286;2023-07-09T05:55:41;33.50;36.50
38020;DHT22;23829;51.350;17.286;2023-07-09T05:58:07;33.50;36.50
38020;DHT22;23829;51.350;17.286;2023-07-09T06:00:34;33.60;36.60
38020;DHT22;23829;51.350;17.286;2023-07-09T06:03:03;33.60;36.60
38020;DHT22;23829;51.350;17.286;2023-07-09T06:05:34;33.40;37.40
38020;DHT22;23829;51.350;17.286;2023-07-09T06:08:00;33.50;37.10
38020;DHT22;23829;51.350;17.286;2023-07-09T06:10:27;34.00;35.80
38020;DHT22;23829;51.350;17.286;2023-07-09T06:12:53;34.40;36.10
38020;DHT22;23829;51.350;17.286;2023-07-09T06:15:19;34.50;35.50
38020;DHT22;23829;51.350;17.286;2023-07-09T06:17:46;34.40;35.90
38020;DHT22;23829;51.350;17.286;2023-07-09T06:20:12;34.60;35.70
38020;DHT22;23829;51.350;17.286;2023-07-09T06:22:38;34.50;36.40
38020;DHT22;23829;51.350;17.286;2023-07-09T06:25:05;34.70;36.20
38020;DHT22;23829;51.350;17.286;2023-07-09T06:27:31;35.00;35.40
38020;DHT22;23829;51.350;17.286;2023-07-09T06:29:58;35.90;34.50
38020;DHT22;23829;51.350;17.286;2023-07-09T06:32:24;35.40;34.70
38020;DHT22;23829;51.350;17.286;2023-07-09T06:34:51;35.20;35.30
38020;DHT22;23829;51.350;17.286;2023-07-09T06:37:17;34.60;35.90
38020;DHT22;23829;51.350;17.286;2023-07-09T06:39:44;33.90;36.80
38020;DHT22;23829;51.350;17.286;2023-07-09T06:42:10;34.90;35.30
38020;DHT22;23829;51.350;17.286;2023-07-09T06:45:05;35.00;34.70
38020;DHT22;23829;51.350;17.286;2023-07-09T06:47:31;35.40;34.40
38020;DHT22;23829;51.350;17.286;2023-07-09T06:49:58;34.70;35.10
38020;DHT22;23829;51.350;17.286;2023-07-09T06:52:24;34.50;34.50
38020;DHT22;23829;51.350;17.286;2023-07-09T06:54:50;34.80;33.60
38020;DHT22;23829;51.350;17.286;2023-07-09T06:57:16;34.70;32.90
38020;DHT22;23829;51.350;17.286;2023-07-09T06:59:43;35.00;33.00
38020;DHT22;23829;51.350;17.286;2023-07-09T07:02:09;34.90;34.00
38020;DHT22;23829;51.350;17.286;2023-07-09T07:04:35;34.90;33.80
38020;DHT22;23829;51.350;17.286;2023-07-09T07:07:02;35.20;33.90
38020;DHT22;23829;51.350;17.286;2023-07-09T07:09:29;35.00;33.60
38020;DHT22;23829;51.350;17.286;2023-07-09T07:11:55;35.40;33.00
38020;DHT22;23829;51.350;17.286;2023-07-09T07:14:22;35.20;32.70
38020;DHT22;23829;51.350;17.286;2023-07-09T07:16:48;35.00;33.50
38020;DHT22;23829;51.350;17.286;2023-07-09T07:19:15;34.60;33.00
38020;DHT22;23829;51.350;17.286;2023-07-09T07:21:41;35.10;33.70
38020;DHT22;23829;51.350;17.286;2023-07-09T07:24:07;35.40;32.70
38020;DHT22;23829;51.350;17.286;2023-07-09T07:26:33;35.70;32.00
38020;DHT22;23829;51.350;17.286;2023-07-09T07:29:01;35.90;31.80
38020;DHT22;23829;51.350;17.286;2023-07-09T07:31:28;35.50;32.80
38020;DHT22;23829;51.350;17.286;2023-07-09T07:33:54;35.70;32.70
38020;DHT22;23829;51.350;17.286;2023-07-09T07:36:20;35.60;31.20
38020;DHT22;23829;51.350;17.286;2023-07-09T07:38:47;35.70;29.30
38020;DHT22;23829;51.350;17.286;2023-07-09T07:41:13;35.60;29.90
38020;DHT22;23829;51.350;17.286;2023-07-09T07:43:39;35.80;30.00
38020;DHT22;23829;51.350;17.286;2023-07-09T07:46:07;35.90;30.50
38020;DHT22;23829;51.350;17.286;2023-07-09T07:48:34;35.90;30.30
38020;DHT22;23829;51.350;17.286;2023-07-09T07:51:03;35.80;30.60
38020;DHT22;23829;51.350;17.286;2023-07-09T07:53:31;35.70;30.60
38020;DHT22;23829;51.350;17.286;2023-07-09T07:55:57;35.80;30.20
38020;DHT22;23829;51.350;17.286;2023-07-09T07:58:24;36.30;30.10
38020;DHT22;23829;51.350;17.286;2023-07-09T08:00:55;36.50;29.90
38020;DHT22;23829;51.350;17.286;2023-07-09T08:03:23;36.40;29.70
38020;DHT22;23829;51.350;17.286;2023-07-09T08:05:50;36.50;29.60
38020;DHT22;23829;51.350;17.286;2023-07-09T08:08:19;36.60;29.50
38020;DHT22;23829;51.350;17.286;2023-07-09T08:10:47;36.20;30.10
38020;DHT22;23829;51.350;17.286;2023-07-09T08:13:13;36.40;30.00
38020;DHT22;23829;51.350;17.286;2023-07-09T08:15:39;36.50;30.40
38020;DHT22;23829;51.350;17.286;2023-07-09T08:18:06;36.50;30.70
38020;DHT22;23829;51.350;17.286;2023-07-09T08:20:32;36.60;31.10
38020;DHT22;23829;51.350;17.286;2023-07-09T08:22:59;36.90;31.10
38020;DHT22;23829;51.350;17.286;2023-07-09T08:25:25;36.70;31.20
38020;DHT22;23829;51.350;17.286;2023-07-09T08:27:52;37.20;29.80
38020;DHT22;23829;51.350;17.286;2023-07-09T08:30:18;37.40;29.60
38020;DHT22;23829;51.350;17.286;2023-07-09T08:32:44;37.10;30.50
38020;DHT22;23829;51.350;17.286;2023-07-09T08:35:10;36.80;30.30
38020;DHT22;23829;51.350;17.286;2023-07-09T08:37:38;36.90;30.30
38020;DHT22;23829;51.350;17.286;2023-07-09T08:40:05;36.30;30.40
38020;DHT22;23829;51.350;17.286;2023-07-09T08:42:44;36.20;30.70
38020;DHT22;23829;51.350;17.286;2023-07-09T08:53:04;36.90;30.70
38020;DHT22;23829;51.350;17.286;2023-07-09T08:55:33;37.00;30.30
38020;DHT22;23829;51.350;17.286;2023-07-09T08:58:17;36.80;29.60
38020;DHT22;23829;51.350;17.286;2023-07-09T09:00:53;37.70;27.70
38020;DHT22;23829;51.350;17.286;2023-07-09T09:03:27;37.90;27.80
38020;DHT22;23829;51.350;17.286;2023-07-09T09:05:56;37.60;28.40
38020;DHT22;23829;51.350;17.286;2023-07-09T09:11:25;37.80;28.50
38020;DHT22;23829;51.350;17.286;2023-07-09T09:13:56;38.10;27.80
38020;DHT22;23829;51.350;17.286;2023-07-09T09:16:30;38.00;28.10
38020;DHT22;23829;51.350;17.286;2023-07-09T09:18:59;37.60;28.20
38020;DHT22;23829;51.350;17.286;2023-07-09T09:21:34;38.10;26.30
38020;DHT22;23829;51.350;17.286;2023-07-09T09:26:46;38.00;27.20
38020;DHT22;23829;51.350;17.286;2023-07-09T09:29:15;38.30;27.50
38020;DHT22;23829;51.350;17.286;2023-07-09T09:31:50;38.00;27.50
38020;DHT22;23829;51.350;17.286;2023-07-09T09:34:20;38.10;26.20
38020;DHT22;23829;51.350;17.286;2023-07-09T09:36:47;38.30;26.10
38020;DHT22;23829;51.350;17.286;2023-07-09T09:39:13;38.10;26.10
38020;DHT22;23829;51.350;17.286;2023-07-09T09:41:40;38.20;26.20
38020;DHT22;23829;51.350;17.286;2023-07-09T09:44:25;38.80;25.60
38020;DHT22;23829;51.350;17.286;2023-07-09T09:46:52;38.50;25.90
38020;DHT22;23829;51.350;17.286;2023-07-09T09:49:21;38.40;26.20
38020;DHT22;23829;51.350;17.286;2023-07-09T09:51:48;38.00;25.80
38020;DHT22;23829;51.350;17.286;2023-07-09T09:54:26;37.80;26.20
38020;DHT22;23829;51.350;17.286;2023-07-09T09:56:54;38.00;26.40
38020;DHT22;23829;51.350;17.286;2023-07-09T09:59:25;38.10;26.80
38020;DHT22;23829;51.350;17.286;2023-07-09T10:02:01;38.20;26.80
38020;DHT22;23829;51.350;17.286;2023-07-09T10:04:28;37.80;26.70
38020;DHT22;23829;51.350;17.286;2023-07-09T10:07:03;37.80;26.20
38020;DHT22;23829;51.350;17.286;2023-07-09T10:09:48;37.90;26.50
38020;DHT22;23829;51.350;17.286;2023-07-09T10:15:24;38.60;25.80
38020;DHT22;23829;51.350;17.286;2023-07-09T10:18:10;39.50;24.50
38020;DHT22;23829;51.350;17.286;2023-07-09T10:21:27;39.30;24.30
38020;DHT22;23829;51.350;17.286;2023-07-09T10:26:32;38.30;24.50
38020;DHT22;23829;51.350;17.286;2023-07-09T10:29:25;38.40;25.30
38020;DHT22;23829;51.350;17.286;2023-07-09T10:35:32;38.80;25.00
38020;DHT22;23829;51.350;17.286;2023-07-09T10:38:15;39.10;24.50
38020;DHT22;23829;51.350;17.286;2023-07-09T10:40:54;39.70;23.00
38020;DHT22;23829;51.350;17.286;2023-07-09T10:43:49;39.80;24.70
38020;DHT22;23829;51.350;17.286;2023-07-09T10:46:23;40.10;23.30
38020;DHT22;23829;51.350;17.286;2023-07-09T10:48:53;39.90;23.20
38020;DHT22;23829;51.350;17.286;2023-07-09T10:51:33;39.40;24.30
38020;DHT22;23829;51.350;17.286;2023-07-09T10:54:30;39.50;23.20
38020;DHT22;23829;51.350;17.286;2023-07-09T10:57:10;39.50;23.30
38020;DHT22;23829;51.350;17.286;2023-07-09T10:59:39;39.60;23.20
38020;DHT22;23829;51.350;17.286;2023-07-09T11:05:04;39.30;23.60
38020;DHT22;23829;51.350;17.286;2023-07-09T11:13:28;39.10;23.50
38020;DHT22;23829;51.350;17.286;2023-07-09T11:15:48;39.40;23.70
38020;DHT22;23829;51.350;17.286;2023-07-09T11:18:24;39.70;22.70
38020;DHT22;23829;51.350;17.286;2023-07-09T11:21:16;39.80;22.30
38020;DHT22;23829;51.350;17.286;2023-07-09T11:23:54;40.20;22.90
38020;DHT22;23829;51.350;17.286;2023-07-09T11:26:26;39.80;23.50
38020;DHT22;23829;51.350;17.286;2023-07-09T11:29:17;39.90;23.40
38020;DHT22;23829;51.350;17.286;2023-07-09T11:31:45;39.70;23.50
38020;DHT22;23829;51.350;17.286;2023-07-09T11:39:29;39.90;23.20
38020;DHT22;23829;51.350;17.286;2023-07-09T11:41:57;40.00;23.30
38020;DHT22;23829;51.350;17.286;2023-07-09T11:44:29;39.70;24.00
38020;DHT22;23829;51.350;17.286;2023-07-09T11:52:49;40.00;24.90
38020;DHT22;23829;51.350;17.286;2023-07-09T11:58:16;40.20;24.30
38020;DHT22;23829;51.350;17.286;2023-07-09T12:00:48;40.20;24.10
38020;DHT22;23829;51.350;17.286;2023-07-09T12:03:25;40.20;23.80
38020;DHT22;23829;51.350;17.286;2023-07-09T12:05:59;40.30;23.30
38020;DHT22;23829;51.350;17.286;2023-07-09T12:08:38;40.00;23.70
38020;DHT22;23829;51.350;17.286;2023-07-09T12:11:06;39.90;23.40
38020;DHT22;23829;51.350;17.286;2023-07-09T12:13:39;39.50;23.20
38020;DHT22;23829;51.350;17.286;2023-07-09T12:16:28;39.50;23.60
38020;DHT22;23829;51.350;17.286;2023-07-09T12:18:55;39.50;24.40
38020;DHT22;23829;51.350;17.286;2023-07-09T12:21:23;39.80;24.20
38020;DHT22;23829;51.350;17.286;2023-07-09T12:23:52;39.90;23.20
38020;DHT22;23829;51.350;17.286;2023-07-09T12:26:20;40.30;23.20
38020;DHT22;23829;51.350;17.286;2023-07-09T12:28:54;40.30;23.40
38020;DHT22;23829;51.350;17.286;2023-07-09T12:31:29;39.90;24.00
38020;DHT22;23829;51.350;17.286;2023-07-09T12:33:57;40.00;23.10
38020;DHT22;23829;51.350;17.286;2023-07-09T12:36:25;40.30;22.90
38020;DHT22;23829;51.350;17.286;2023-07-09T12:38:56;40.70;21.90
38020;DHT22;23829;51.350;17.286;2023-07-09T12:41:37;40.20;23.20
38020;DHT22;23829;51.350;17.286;2023-07-09T12:44:04;40.00;22.60
38020;DHT22;23829;51.350;17.286;2023-07-09T12:46:31;40.50;22.20
38020;DHT22;23829;51.350;17.286;2023-07-09T12:48:58;40.20;22.80
38020;DHT22;23829;51.350;17.286;2023-07-09T12:51:27;39.90;22.80
38020;DHT22;23829;51.350;17.286;2023-07-09T12:54:13;40.20;22.90
38020;DHT22;23829;51.350;17.286;2023-07-09T12:56:40;40.00;22.40
38020;DHT22;23829;51.350;17.286;2023-07-09T13:02:17;39.70;23.40
38020;DHT22;23829;51.350;17.286;2023-07-09T13:04:43;39.60;22.80
38020;DHT22;23829;51.350;17.286;2023-07-09T13:07:30;40.10;22.40
38020;DHT22;23829;51.350;17.286;2023-07-09T13:10:46;39.90;22.80
38020;DHT22;23829;51.350;17.286;2023-07-09T13:13:05;40.20;23.30
38020;DHT22;23829;51.350;17.286;2023-07-09T13:15:41;40.20;22.60
38020;DHT22;23829;51.350;17.286;2023-07-09T13:18:13;40.00;22.80
38020;DHT22;23829;51.350;17.286;2023-07-09T13:20:41;39.70;22.80
38020;DHT22;23829;51.350;17.286;2023-07-09T13:25:38;39.60;23.40
38020;DHT22;23829;51.350;17.286;2023-07-09T13:28:18;39.70;23.40
38020;DHT22;23829;51.350;17.286;2023-07-09T13:30:47;40.20;22.60
38020;DHT22;23829;51.350;17.286;2023-07-09T13:33:13;40.30;22.80
38020;DHT22;23829;51.350;17.286;2023-07-09T13:35:41;40.10;23.20
38020;DHT22;23829;51.350;17.286;2023-07-09T13:38:18;39.60;23.00
38020;DHT22;23829;51.350;17.286;2023-07-09T13:40:48;39.70;23.00
38020;DHT22;23829;51.350;17.286;2023-07-09T13:43:29;39.80;22.80
38020;DHT22;23829;51.350;17.286;2023-07-09T13:45:56;40.10;22.70
38020;DHT22;23829;51.350;17.286;2023-07-09T13:48:24;40.10;22.80
38020;DHT22;23829;51.350;17.286;2023-07-09T13:50:52;40.10;22.90
38020;DHT22;23829;51.350;17.286;2023-07-09T13:53:25;40.30;21.80
38020;DHT22;23829;51.350;17.286;2023-07-09T13:55:53;40.70;22.00
38020;DHT22;23829;51.350;17.286;2023-07-09T13:58:21;41.10;22.30
38020;DHT22;23829;51.350;17.286;2023-07-09T14:00:50;40.60;22.60
38020;DHT22;23829;51.350;17.286;2023-07-09T14:03:28;40.50;22.50
38020;DHT22;23829;51.350;17.286;2023-07-09T14:05:55;40.70;22.00
38020;DHT22;23829;51.350;17.286;2023-07-09T14:08:21;40.40;22.40
38020;DHT22;23829;51.350;17.286;2023-07-09T14:10:48;40.60;21.90
38020;DHT22;23829;51.350;17.286;2023-07-09T14:13:17;40.30;22.20
38020;DHT22;23829;51.350;17.286;2023-07-09T14:15:44;40.40;21.90
38020;DHT22;23829;51.350;17.286;2023-07-09T14:18:19;40.20;22.10
38020;DHT22;23829;51.350;17.286;2023-07-09T14:20:46;40.40;22.20
38020;DHT22;23829;51.350;17.286;2023-07-09T14:23:14;40.20;22.30
38020;DHT22;23829;51.350;17.286;2023-07-09T14:25:42;39.90;22.80
38020;DHT22;23829;51.350;17.286;2023-07-09T14:28:27;39.90;22.80
38020;DHT22;23829;51.350;17.286;2023-07-09T14:30:53;40.40;22.20
38020;DHT22;23829;51.350;17.286;2023-07-09T14:33:21;40.50;22.10
38020;DHT22;23829;51.350;17.286;2023-07-09T14:35:48;40.60;22.10
38020;DHT22;23829;51.350;17.286;2023-07-09T14:38:19;40.40;22.60
38020;DHT22;23829;51.350;17.286;2023-07-09T14:40:47;40.50;22.70
38020;DHT22;23829;51.350;17.286;2023-07-09T14:43:14;40.40;22.20
38020;DHT22;23829;51.350;17.286;2023-07-09T14:45:40;40.40;22.40
38020;DHT22;23829;51.350;17.286;2023-07-09T14:48:18;40.50;22.00
38020;DHT22;23829;51.350;17.286;2023-07-09T14:50:46;40.20;22.70
38020;DHT22;23829;51.350;17.286;2023-07-09T14:53:30;39.80;22.50
38020;DHT22;23829;51.350;17.286;2023-07-09T14:55:57;40.00;22.50
38020;DHT22;23829;51.350;17.286;2023-07-09T14:58:23;40.00;22.10
38020;DHT22;23829;51.350;17.286;2023-07-09T15:00:50;40.00;22.20
38020;DHT22;23829;51.350;17.286;2023-07-09T15:03:20;40.10;22.60
38020;DHT22;23829;51.350;17.286;2023-07-09T15:05:46;39.80;22.50
38020;DHT22;23829;51.350;17.286;2023-07-09T15:08:15;39.70;22.30
38020;DHT22;23829;51.350;17.286;2023-07-09T15:10:42;40.10;21.60
38020;DHT22;23829;51.350;17.286;2023-07-09T15:13:18;39.60;21.70
38020;DHT22;23829;51.350;17.286;2023-07-09T15:15:45;40.50;21.90
38020;DHT22;23829;51.350;17.286;2023-07-09T15:18:14;40.10;22.10
38020;DHT22;23829;51.350;17.286;2023-07-09T15:20:47;40.00;22.20
38020;DHT22;23829;51.350;17.286;2023-07-09T15:23:14;39.90;22.40
38020;DHT22;23829;51.350;17.286;2023-07-09T15:25:41;40.20;21.50
38020;DHT22;23829;51.350;17.286;2023-07-09T15:28:10;40.20;21.50
38020;DHT22;23829;51.350;17.286;2023-07-09T15:30:37;40.40;21.00
38020;DHT22;23829;51.350;17.286;2023-07-09T15:33:05;40.40;22.00
38020;DHT22;23829;51.350;17.286;2023-07-09T15:35:34;40.60;21.60
38020;DHT22;23829;51.350;17.286;2023-07-09T15:40:44;40.10;21.80
38020;DHT22;23829;51.350;17.286;2023-07-09T15:43:14;40.10;22.30
38020;DHT22;23829;51.350;17.286;2023-07-09T15:45:49;40.30;21.60
38020;DHT22;23829;51.350;17.286;2023-07-09T15:50:48;40.40;21.80
38020;DHT22;23829;51.350;17.286;2023-07-09T15:53:15;40.40;21.80
38020;DHT22;23829;51.350;17.286;2023-07-09T15:55:41;40.30;21.90
38020;DHT22;23829;51.350;17.286;2023-07-09T15:58:32;40.30;21.20
38020;DHT22;23829;51.350;17.286;2023-07-09T16:01:00;40.20;21.70
38020;DHT22;23829;51.350;17.286;2023-07-09T16:03:27;40.60;21.30
38020;DHT22;23829;51.350;17.286;2023-07-09T16:05:53;40.60;21.90
38020;DHT22;23829;51.350;17.286;2023-07-09T16:08:19;40.50;21.60
38020;DHT22;23829;51.350;17.286;2023-07-09T16:10:49;40.40;21.20
38020;DHT22;23829;51.350;17.286;2023-07-09T16:13:25;40.50;21.40
38020;DHT22;23829;51.350;17.286;2023-07-09T16:15:52;40.40;21.70
38020;DHT22;23829;51.350;17.286;2023-07-09T16:18:18;40.20;22.00
38020;DHT22;23829;51.350;17.286;2023-07-09T16:20:46;40.20;22.00
38020;DHT22;23829;51.350;17.286;2023-07-09T16:23:18;40.10;22.20
38020;DHT22;23829;51.350;17.286;2023-07-09T16:25:47;40.10;22.40
38020;DHT22;23829;51.350;17.286;2023-07-09T16:28:15;40.20;23.10
38020;DHT22;23829;51.350;17.286;2023-07-09T16:30:42;40.20;22.70
38020;DHT22;23829;51.350;17.286;2023-07-09T16:33:08;40.00;22.60